createdAt,value
2023-05-23T00:01:18.554Z,7.77
2023-05-23T00:03:47.573Z,8.50
2023-05-23T00:06:15.830Z,8.23
2023-05-23T00:08:44.054Z,8.40
2023-05-23T00:11:13.505Z,8.90
2023-05-23T00:13:42.321Z,8.33
2023-05-23T00:16:10.602Z,7.87
2023-05-23T00:18:38.585Z,8.73
2023-05-23T00:21:06.936Z,8.60
2023-05-23T00:23:35.264Z,8.90
2023-05-23T00:26:04.154Z,9.23
2023-05-23T00:28:32.264Z,8.80
2023-05-23T00:31:00.352Z,8.03
2023-05-23T00:33:29.833Z,9.33
2023-05-23T00:35:57.957Z,8.70
2023-05-23T00:38:26.890Z,8.67
2023-05-23T00:40:54.618Z,8.83
2023-05-23T00:43:23.001Z,8.40
2023-05-23T00:45:50.982Z,8.83
2023-05-23T00:48:18.861Z,9.80
2023-05-23T00:50:46.803Z,9.33
2023-05-23T00:53:14.507Z,10.00
2023-05-23T00:55:42.992Z,9.90
2023-05-23T00:58:10.446Z,9.67
2023-05-23T01:00:38.736Z,9.03
2023-05-23T01:03:07.206Z,10.30
2023-05-23T01:05:34.927Z,10.23
2023-05-23T01:08:03.462Z,9.70
2023-05-23T01:10:30.994Z,10.20
2023-05-23T01:13:31.556Z,10.20
2023-05-23T01:16:19.173Z,9.73
2023-05-23T01:18:48.005Z,10.10
2023-05-23T01:21:19.177Z,10.50
2023-05-23T01:24:17.792Z,10.73
2023-05-23T01:27:14.271Z,10.97
2023-05-23T01:29:46.213Z,10.57
2023-05-23T01:32:15.249Z,11.53
2023-05-23T01:34:42.749Z,12.17
2023-05-23T01:37:18.835Z,11.30
2023-05-23T01:39:46.621Z,12.00
2023-05-23T01:42:14.312Z,12.37
2023-05-23T01:44:42.507Z,11.53
2023-05-23T01:47:10.572Z,12.47
2023-05-23T01:49:37.851Z,12.47
2023-05-23T01:52:09.848Z,12.60
2023-05-23T01:54:38.406Z,12.27
2023-05-23T01:57:06.472Z,11.63
2023-05-23T01:59:34.901Z,11.03
2023-05-23T02:02:02.964Z,11.50
2023-05-23T02:04:31.038Z,12.13
2023-05-23T02:06:58.798Z,13.30
2023-05-23T02:09:27.298Z,12.13
2023-05-23T02:11:55.583Z,11.87
2023-05-23T02:14:24.720Z,12.47
2023-05-23T02:16:53.077Z,11.83
2023-05-23T02:19:20.940Z,11.70
2023-05-23T02:21:48.769Z,12.20
2023-05-23T02:24:17.058Z,12.47
2023-05-23T02:26:45.333Z,11.77
2023-05-23T02:29:13.772Z,12.73
2023-05-23T02:31:41.862Z,13.30
2023-05-23T02:34:09.769Z,13.40
2023-05-23T02:36:37.523Z,13.17
2023-05-23T02:39:05.706Z,12.67
2023-05-23T02:41:33.885Z,12.60
2023-05-23T02:44:01.999Z,12.67
2023-05-23T02:46:29.826Z,12.43
2023-05-23T02:48:58.322Z,11.97
2023-05-23T02:51:26.716Z,11.63
2023-05-23T02:53:54.697Z,11.23
2023-05-23T02:56:22.754Z,11.27
2023-05-23T02:58:50.470Z,11.10
2023-05-23T03:01:18.205Z,9.97
2023-05-23T03:03:46.642Z,10.50
2023-05-23T03:06:14.747Z,10.97
2023-05-23T03:08:43.037Z,11.03
2023-05-23T03:11:11.104Z,11.43
2023-05-23T03:13:38.937Z,11.50
2023-05-23T03:16:07.675Z,11.47
2023-05-23T03:18:35.716Z,11.50
2023-05-23T03:21:03.679Z,11.53
2023-05-23T03:23:31.690Z,11.33
2023-05-23T03:25:59.901Z,11.33
2023-05-23T03:28:27.825Z,11.83
2023-05-23T03:30:56.126Z,11.30
2023-05-23T03:33:24.191Z,11.63
2023-05-23T03:35:53.064Z,12.13
2023-05-23T03:38:21.307Z,11.63
2023-05-23T03:40:49.250Z,12.07
2023-05-23T03:43:17.362Z,11.47
2023-05-23T03:45:45.248Z,11.90
2023-05-23T03:48:13.033Z,11.23
2023-05-23T03:50:40.780Z,12.47
2023-05-23T03:53:08.875Z,12.00
2023-05-23T03:55:37.047Z,12.13
2023-05-23T03:58:05.131Z,11.67
2023-05-23T04:00:33.338Z,11.80
2023-05-23T04:03:01.776Z,11.73
2023-05-23T04:05:29.788Z,10.87
2023-05-23T04:07:57.756Z,12.10
2023-05-23T04:10:25.259Z,12.57
2023-05-23T04:12:53.688Z,12.43
2023-05-23T04:15:21.686Z,11.97
2023-05-23T04:17:49.722Z,12.33
2023-05-23T04:20:17.968Z,12.63
2023-05-23T04:22:45.673Z,12.57
2023-05-23T04:25:13.958Z,12.17
2023-05-23T04:27:42.808Z,13.70
2023-05-23T04:30:13.267Z,11.73
2023-05-23T04:32:40.963Z,13.10
2023-05-23T04:35:13.618Z,11.80
2023-05-23T04:37:42.630Z,12.70
2023-05-23T04:40:13.642Z,11.27
2023-05-23T04:42:44.765Z,11.87
2023-05-23T04:45:12.989Z,12.93
2023-05-23T04:47:42.167Z,11.80
2023-05-23T04:50:12.309Z,11.07
2023-05-23T04:52:40.392Z,11.83
2023-05-23T04:55:10.362Z,11.27
2023-05-23T04:57:38.966Z,11.43
2023-05-23T05:00:10.484Z,13.00
2023-05-23T05:02:39.131Z,12.33
2023-05-23T05:05:08.568Z,11.27
2023-05-23T05:07:37.067Z,11.07
2023-05-23T05:10:05.346Z,11.57
2023-05-23T05:12:33.019Z,11.67
2023-05-23T05:15:00.513Z,12.60
2023-05-23T05:17:28.298Z,12.97
2023-05-23T05:19:56.468Z,12.33
2023-05-23T05:22:25.872Z,12.00
2023-05-23T05:24:53.936Z,12.83
2023-05-23T05:27:21.638Z,12.73
2023-05-23T05:29:50.143Z,14.10
2023-05-23T05:32:17.736Z,13.77
2023-05-23T05:34:49.136Z,13.80
2023-05-23T05:37:17.101Z,14.30
2023-05-23T05:39:44.689Z,13.37
2023-05-23T05:42:12.653Z,15.17
2023-05-23T05:44:40.870Z,16.90
2023-05-23T05:47:08.863Z,14.93
2023-05-23T05:49:36.805Z,13.73
2023-05-23T05:52:05.267Z,13.53
2023-05-23T05:54:33.365Z,12.73
2023-05-23T05:57:00.600Z,13.53
2023-05-23T05:59:28.691Z,13.80
2023-05-23T06:01:57.690Z,14.40
2023-05-23T06:04:25.711Z,14.30
2023-05-23T06:06:53.303Z,12.97
2023-05-23T06:09:21.826Z,11.13
2023-05-23T06:11:49.449Z,11.27
2023-05-23T06:14:17.484Z,10.87
2023-05-23T06:16:45.855Z,10.80
2023-05-23T06:19:13.526Z,10.40
2023-05-23T06:21:41.214Z,9.53
2023-05-23T06:24:08.967Z,10.70
2023-05-23T06:26:37.726Z,9.90
2023-05-23T06:29:06.002Z,9.20
2023-05-23T06:31:33.741Z,9.70
2023-05-23T06:34:02.728Z,11.07
2023-05-23T06:36:31.810Z,9.60
2023-05-23T06:38:59.916Z,10.97
2023-05-23T06:41:27.741Z,10.43
2023-05-23T06:43:55.322Z,11.17
2023-05-23T06:46:23.561Z,11.00
2023-05-23T06:48:59.510Z,10.67
2023-05-23T06:51:34.876Z,11.17
2023-05-23T06:54:03.143Z,10.93
2023-05-23T06:56:30.792Z,10.47
2023-05-23T06:58:58.583Z,10.77
2023-05-23T07:01:27.424Z,9.90
2023-05-23T07:03:55.208Z,9.60
2023-05-23T07:06:22.119Z,9.60
2023-05-23T07:08:50.186Z,8.90
2023-05-23T07:11:18.183Z,10.25
2023-05-23T07:13:46.449Z,10.47
2023-05-23T07:16:14.058Z,10.43
2023-05-23T07:18:42.021Z,11.27
2023-05-23T07:21:10.062Z,10.47
2023-05-23T07:23:38.174Z,10.87
2023-05-23T07:26:06.166Z,10.50
2023-05-23T07:28:33.771Z,12.07
2023-05-23T07:31:01.514Z,11.18
2023-05-23T07:33:33.214Z,11.73
2023-05-23T07:36:00.952Z,9.43
2023-05-23T07:38:28.560Z,8.93
2023-05-23T07:41:09.820Z,10.18
2023-05-23T07:43:38.454Z,10.70
2023-05-23T07:46:07.166Z,9.80
2023-05-23T07:48:35.470Z,9.02
2023-05-23T07:51:03.613Z,9.10
2023-05-23T07:53:31.498Z,8.82
2023-05-23T07:55:59.134Z,8.40
2023-05-23T07:58:27.215Z,7.78
2023-05-23T08:00:55.323Z,8.20
2023-05-23T08:03:23.336Z,8.35
2023-05-23T08:05:51.474Z,8.63
2023-05-23T08:08:19.483Z,9.10
2023-05-23T08:10:47.440Z,9.35
2023-05-23T08:13:15.667Z,9.15
2023-05-23T08:15:44.287Z,9.55
2023-05-23T08:18:13.533Z,10.02
2023-05-23T08:20:42.244Z,9.30
2023-05-23T08:23:10.072Z,8.65
2023-05-23T08:25:38.019Z,11.40
2023-05-23T08:28:06.256Z,10.43
2023-05-23T08:30:34.797Z,10.30
2023-05-23T08:33:05.042Z,11.25
2023-05-23T08:35:38.313Z,11.25
2023-05-23T08:38:10.642Z,11.85
2023-05-23T08:40:38.319Z,12.00
2023-05-23T08:43:06.052Z,14.15
2023-05-23T08:45:34.553Z,14.05
2023-05-23T08:48:02.250Z,14.55
2023-05-23T08:50:30.649Z,14.77
2023-05-23T08:52:59.966Z,13.77
2023-05-23T08:55:28.856Z,12.93
2023-05-23T08:58:00.476Z,12.50
2023-05-23T09:00:28.143Z,12.18
2023-05-23T09:02:56.142Z,11.90
2023-05-23T09:05:23.922Z,12.13
2023-05-23T09:07:54.003Z,11.57
2023-05-23T09:10:22.061Z,12.82
2023-05-23T09:12:53.609Z,11.85
2023-05-23T09:15:22.487Z,11.75
2023-05-23T09:17:50.662Z,10.48
2023-05-23T09:20:18.786Z,11.40
2023-05-23T09:23:07.739Z,10.48
2023-05-23T09:25:38.927Z,10.25
2023-05-23T09:28:07.167Z,10.50
2023-05-23T09:30:35.475Z,10.85
2023-05-23T09:33:05.420Z,11.18
2023-05-23T09:35:33.707Z,9.07
2023-05-23T09:38:01.766Z,9.35
2023-05-23T09:40:33.283Z,9.40
2023-05-23T09:43:04.517Z,7.90
2023-05-23T09:45:32.624Z,10.15
2023-05-23T09:48:02.304Z,10.82
2023-05-23T09:50:34.413Z,10.30
2023-05-23T09:53:02.753Z,10.55
2023-05-23T09:55:30.710Z,9.73
2023-05-23T09:57:58.710Z,8.25
2023-05-23T10:00:26.636Z,10.20
2023-05-23T10:03:15.257Z,10.07
2023-05-23T10:05:46.140Z,10.02
2023-05-23T10:08:29.877Z,9.27
2023-05-23T10:10:57.302Z,6.38
2023-05-23T10:13:28.568Z,8.60
2023-05-23T10:16:25.064Z,8.85
2023-05-23T10:19:27.280Z,10.05
2023-05-23T10:22:01.717Z,7.65
2023-05-23T10:24:30.123Z,8.48
2023-05-23T10:26:58.182Z,8.20
2023-05-23T10:29:26.563Z,9.65
2023-05-23T10:31:53.658Z,9.75
2023-05-23T10:34:45.187Z,8.27
2023-05-23T10:37:30.499Z,7.88
2023-05-23T10:40:14.197Z,6.30
2023-05-23T10:42:46.357Z,6.63
2023-05-23T10:45:21.706Z,5.00
2023-05-23T10:47:49.713Z,8.13
2023-05-23T10:50:32.098Z,7.03
2023-05-23T10:53:02.083Z,7.28
2023-05-23T10:55:33.189Z,8.90
2023-05-23T10:58:23.116Z,5.63
2023-05-23T11:01:06.147Z,6.70
2023-05-23T11:03:49.905Z,6.43
2023-05-23T11:06:38.749Z,7.75
2023-05-23T11:09:13.998Z,5.68
2023-05-23T11:11:53.586Z,5.13
2023-05-23T11:14:43.767Z,6.13
2023-05-23T11:17:13.237Z,5.88
2023-05-23T11:19:41.708Z,4.40
2023-05-23T11:22:09.740Z,5.13
2023-05-23T11:24:55.182Z,5.70
2023-05-23T11:27:40.291Z,5.65
2023-05-23T11:30:10.085Z,3.92
2023-05-23T11:32:38.569Z,4.15
2023-05-23T11:35:09.043Z,3.75
2023-05-23T11:37:36.679Z,4.50
2023-05-23T11:40:26.297Z,4.30
2023-05-23T11:42:57.546Z,4.72
2023-05-23T11:45:25.033Z,4.50
2023-05-23T11:47:52.897Z,4.57
2023-05-23T11:50:24.502Z,4.55
2023-05-23T11:52:52.810Z,4.32
2023-05-23T11:55:21.416Z,4.05
2023-05-23T11:57:49.026Z,4.40
2023-05-23T12:00:19.282Z,4.00
2023-05-23T12:02:48.012Z,4.10
2023-05-23T12:05:16.078Z,3.67
2023-05-23T12:07:47.668Z,4.07
2023-05-23T12:10:16.374Z,4.57
2023-05-23T12:12:43.354Z,4.20
2023-05-23T12:15:12.765Z,4.32
2023-05-23T12:17:41.474Z,4.90
2023-05-23T12:20:10.244Z,4.57
2023-05-23T12:22:38.533Z,4.15
2023-05-23T12:25:09.225Z,3.80
2023-05-23T12:27:37.607Z,3.28
2023-05-23T12:30:12.282Z,3.70
2023-05-23T12:32:43.517Z,3.72
2023-05-23T12:35:34.484Z,3.60
2023-05-23T12:38:01.919Z,3.63
2023-05-23T12:40:30.014Z,4.10
2023-05-23T12:42:58.324Z,4.78
2023-05-23T12:45:55.413Z,4.45
2023-05-23T12:48:23.643Z,4.60
2023-05-23T12:50:51.525Z,4.95
2023-05-23T12:53:19.377Z,4.63
2023-05-23T12:55:47.429Z,4.63
2023-05-23T12:58:15.632Z,3.53
2023-05-23T13:00:43.960Z,5.80
2023-05-23T13:03:12.201Z,6.30
2023-05-23T13:05:40.361Z,6.22
2023-05-23T13:08:08.522Z,6.50
2023-05-23T13:10:36.595Z,5.80
2023-05-23T13:13:04.770Z,5.95
2023-05-23T13:15:32.645Z,5.38
2023-05-23T13:18:00.986Z,5.05
2023-05-23T13:20:30.454Z,5.55
2023-05-23T13:23:01.912Z,5.25
2023-05-23T13:25:28.655Z,5.80
2023-05-23T13:27:56.873Z,5.53
2023-05-23T13:30:24.912Z,4.63
2023-05-23T13:32:53.043Z,5.55
2023-05-23T13:35:20.965Z,5.30
2023-05-23T13:37:49.051Z,5.43
2023-05-23T13:40:20.573Z,5.10
2023-05-23T13:42:49.896Z,4.53
2023-05-23T13:45:18.688Z,4.70
2023-05-23T13:47:47.532Z,4.65
2023-05-23T13:50:14.752Z,4.85
2023-05-23T13:52:45.654Z,4.28
2023-05-23T13:55:15.697Z,5.00
2023-05-23T13:57:43.670Z,5.07
2023-05-23T14:00:14.606Z,5.82
2023-05-23T14:02:42.905Z,5.40
2023-05-23T14:05:11.544Z,5.60
2023-05-23T14:07:39.296Z,5.40
2023-05-23T14:10:09.739Z,4.15
2023-05-23T14:12:37.885Z,5.13
2023-05-23T14:15:08.023Z,4.97
2023-05-23T14:17:36.068Z,4.18
2023-05-23T14:20:04.712Z,5.05
2023-05-23T14:22:32.790Z,4.95
2023-05-23T14:25:00.036Z,4.88
2023-05-23T14:27:28.451Z,4.03
2023-05-23T14:29:56.075Z,3.60
2023-05-23T14:32:23.828Z,3.28
2023-05-23T14:34:51.669Z,3.50
2023-05-23T14:37:19.879Z,3.53
2023-05-23T14:39:47.691Z,3.78
2023-05-23T14:42:15.596Z,3.95
2023-05-23T14:44:43.690Z,4.40
2023-05-23T14:47:11.725Z,4.30
2023-05-23T14:49:39.907Z,4.78
2023-05-23T14:52:07.931Z,4.85
2023-05-23T14:54:35.995Z,4.72
2023-05-23T14:57:04.146Z,4.47
2023-05-23T14:59:32.669Z,3.70
2023-05-23T15:02:00.654Z,3.70
2023-05-23T15:04:28.518Z,3.75
2023-05-23T15:06:56.218Z,4.10
2023-05-23T15:09:24.176Z,4.72
2023-05-23T15:11:52.395Z,4.28
2023-05-23T15:14:20.033Z,4.25
2023-05-23T15:16:48.904Z,3.90
2023-05-23T15:19:17.295Z,4.13
2023-05-23T15:21:51.001Z,4.35
2023-05-23T15:26:47.530Z,3.85
2023-05-23T15:29:18.258Z,4.75
2023-05-23T15:31:46.213Z,4.55
2023-05-23T15:34:13.882Z,4.95
2023-05-23T15:36:41.975Z,4.82
2023-05-23T15:39:10.337Z,4.50
2023-05-23T15:41:38.380Z,4.47
2023-05-23T15:44:06.353Z,4.07
2023-05-23T15:46:34.553Z,3.60
2023-05-23T15:49:10.564Z,3.45
2023-05-23T15:51:49.999Z,3.28
2023-05-23T15:54:18.069Z,3.38
2023-05-23T15:56:45.810Z,3.60
2023-05-23T15:59:13.792Z,3.42
2023-05-23T16:01:41.975Z,3.47
2023-05-23T16:04:10.222Z,3.65
2023-05-23T16:06:39.071Z,3.72
2023-05-23T16:09:06.983Z,3.60
2023-05-23T16:11:35.224Z,3.47
2023-05-23T16:14:03.254Z,4.18
2023-05-23T16:16:31.316Z,4.45
2023-05-23T16:18:59.361Z,3.85
2023-05-23T16:21:27.504Z,4.00
2023-05-23T16:23:56.259Z,3.58
2023-05-23T16:26:23.871Z,3.53
2023-05-23T16:28:51.732Z,3.63
2023-05-23T16:31:19.342Z,3.40
2023-05-23T16:33:47.429Z,4.03
2023-05-23T16:36:15.565Z,3.47
2023-05-23T16:38:43.382Z,3.33
2023-05-23T16:41:11.175Z,3.45
2023-05-23T16:43:39.295Z,3.67
2023-05-23T16:46:07.633Z,3.60
2023-05-23T16:48:35.806Z,3.05
2023-05-23T16:51:03.919Z,3.30
2023-05-23T16:53:31.878Z,3.95
2023-05-23T16:56:00.122Z,3.08
2023-05-23T16:58:27.720Z,3.30
2023-05-23T17:00:56.271Z,3.35
2023-05-23T17:03:24.431Z,3.50
2023-05-23T17:05:52.401Z,3.53
2023-05-23T17:08:20.376Z,3.45
2023-05-23T17:10:48.500Z,3.80
2023-05-23T17:13:16.273Z,3.70
2023-05-23T17:15:45.027Z,3.72
2023-05-23T17:18:12.844Z,3.78
2023-05-23T17:20:41.192Z,4.22
2023-05-23T17:23:10.955Z,4.10
2023-05-23T17:25:39.993Z,4.07
2023-05-23T17:28:08.324Z,4.32
2023-05-23T17:30:36.410Z,3.92
2023-05-23T17:33:05.005Z,4.65
2023-05-23T17:35:33.036Z,4.28
2023-05-23T17:38:02.543Z,3.78
2023-05-23T17:40:30.185Z,3.58
2023-05-23T17:42:58.230Z,3.60
2023-05-23T17:45:26.336Z,3.83
2023-05-23T17:47:53.919Z,3.42
2023-05-23T17:50:22.908Z,3.30
2023-05-23T17:52:50.796Z,4.70
2023-05-23T17:55:18.612Z,4.00
2023-05-23T17:57:46.575Z,4.55
2023-05-23T18:00:16.396Z,5.25
2023-05-23T18:02:44.846Z,5.15
2023-05-23T18:05:12.776Z,5.55
2023-05-23T18:07:41.196Z,5.03
2023-05-23T18:10:11.770Z,6.18
2023-05-23T18:12:39.813Z,6.63
2023-05-23T18:15:10.305Z,6.32
2023-05-23T18:17:38.009Z,7.68
2023-05-23T18:20:08.653Z,7.68
2023-05-23T18:22:36.415Z,5.40
2023-05-23T18:25:04.453Z,4.55
2023-05-23T18:27:32.543Z,4.25
2023-05-23T18:30:00.532Z,4.65
2023-05-23T18:32:28.540Z,4.18
2023-05-23T18:34:56.690Z,4.05
2023-05-23T18:37:24.434Z,4.65
2023-05-23T18:39:52.519Z,4.75
2023-05-23T18:42:20.287Z,3.95
2023-05-23T18:44:47.988Z,4.50
2023-05-23T18:47:15.547Z,4.38
2023-05-23T18:49:43.596Z,4.22
2023-05-23T18:52:11.153Z,4.50
2023-05-23T18:54:39.263Z,4.28
2023-05-23T18:57:07.405Z,4.53
2023-05-23T18:59:35.437Z,4.38
2023-05-23T19:02:03.641Z,4.53
2023-05-23T19:04:31.347Z,4.47
2023-05-23T19:07:00.048Z,5.00
2023-05-23T19:09:28.225Z,5.30
2023-05-23T19:11:56.057Z,4.65
2023-05-23T19:14:24.665Z,4.43
2023-05-23T19:16:55.271Z,5.07
2023-05-23T19:19:26.831Z,4.70
2023-05-23T19:22:00.890Z,5.13
2023-05-23T19:24:32.187Z,4.90
2023-05-23T19:27:05.364Z,5.25
2023-05-23T19:29:33.528Z,5.20
2023-05-23T19:32:01.370Z,5.18
2023-05-23T19:34:29.269Z,4.88
2023-05-23T19:36:58.531Z,4.93
2023-05-23T19:39:26.495Z,5.10
2023-05-23T19:41:54.638Z,5.10
2023-05-23T19:44:23.345Z,4.97
2023-05-23T19:46:51.644Z,4.82
2023-05-23T19:49:20.209Z,4.88
2023-05-23T19:51:49.686Z,4.37
2023-05-23T19:54:20.178Z,4.22
2023-05-23T19:56:48.051Z,5.20
2023-05-23T19:59:15.980Z,6.27
2023-05-23T20:01:44.177Z,5.27
2023-05-23T20:04:14.221Z,5.50
2023-05-23T20:06:44.277Z,4.93
2023-05-23T20:09:17.786Z,5.23
2023-05-23T20:11:45.596Z,5.40
2023-05-23T20:14:17.586Z,5.50
2023-05-23T20:16:49.813Z,5.43
2023-05-23T20:19:17.702Z,5.50
2023-05-23T20:21:49.723Z,6.53
2023-05-23T20:24:19.168Z,5.80
2023-05-23T20:26:46.792Z,5.67
2023-05-23T20:29:14.700Z,5.33
2023-05-23T20:31:44.502Z,5.63
2023-05-23T20:34:16.025Z,5.30
2023-05-23T20:36:44.191Z,5.20
2023-05-23T20:39:11.822Z,5.03
2023-05-23T20:41:42.843Z,5.70
2023-05-23T20:44:14.110Z,5.47
2023-05-23T20:46:42.602Z,5.67
2023-05-23T20:49:11.238Z,6.20
2023-05-23T20:51:39.067Z,6.53
2023-05-23T20:54:07.674Z,7.70
2023-05-23T20:56:35.576Z,7.10
2023-05-23T20:59:04.554Z,7.53
2023-05-23T21:01:33.386Z,8.10
2023-05-23T21:04:01.251Z,7.70
2023-05-23T21:06:29.129Z,7.60
2023-05-23T21:08:57.272Z,6.93
2023-05-23T21:11:25.299Z,6.37
2023-05-23T21:13:53.414Z,5.83
2023-05-23T21:16:21.449Z,6.20
2023-05-23T21:18:49.231Z,6.37
2023-05-23T21:21:16.936Z,6.57
2023-05-23T21:23:44.478Z,5.30
2023-05-23T21:26:12.964Z,5.30
2023-05-23T21:28:40.540Z,5.27
2023-05-23T21:31:08.526Z,5.80
2023-05-23T21:33:36.611Z,6.07
2023-05-23T21:36:04.894Z,5.63
2023-05-23T21:38:32.766Z,6.00
2023-05-23T21:41:00.652Z,5.33
2023-05-23T21:43:28.726Z,5.30
2023-05-23T21:45:56.819Z,6.00
2023-05-23T21:51:00.152Z,4.93
2023-05-23T21:53:28.516Z,5.00
2023-05-23T21:55:57.125Z,4.90
2023-05-23T21:58:25.439Z,4.87
2023-05-23T22:00:53.487Z,4.77
2023-05-23T22:03:21.698Z,4.57
2023-05-23T22:05:49.806Z,4.87
2023-05-23T22:08:17.994Z,5.27
2023-05-23T22:10:46.199Z,4.10
2023-05-23T22:13:14.150Z,4.13
2023-05-23T22:15:42.275Z,4.30
2023-05-23T22:18:10.221Z,4.13
2023-05-23T22:20:39.241Z,4.10
2023-05-23T22:23:07.881Z,4.40
2023-05-23T22:25:38.607Z,4.13
2023-05-23T22:28:06.305Z,4.37
2023-05-23T22:30:34.377Z,4.10
2023-05-23T22:33:02.506Z,3.80
2023-05-23T22:35:30.520Z,3.97
2023-05-23T22:37:59.056Z,3.73
2023-05-23T22:40:27.211Z,4.00
2023-05-23T22:42:54.895Z,4.07
2023-05-23T22:45:22.972Z,3.87
2023-05-23T22:47:54.126Z,3.70
2023-05-23T22:50:22.750Z,3.93
2023-05-23T22:52:50.734Z,3.90
2023-05-23T22:55:18.823Z,4.60
2023-05-23T22:57:47.205Z,3.90
2023-05-23T23:00:16.280Z,3.67
2023-05-23T23:02:44.634Z,3.60
2023-05-23T23:05:12.327Z,3.87
2023-05-23T23:07:40.424Z,3.60
2023-05-23T23:10:10.255Z,4.03
2023-05-23T23:12:38.047Z,4.03
2023-05-23T23:15:07.598Z,4.20
2023-05-23T23:17:35.217Z,4.03
2023-05-23T23:20:04.364Z,3.87
2023-05-23T23:22:32.607Z,4.00
2023-05-23T23:25:02.178Z,4.00
2023-05-23T23:27:31.797Z,4.00
2023-05-23T23:29:59.769Z,4.57
2023-05-23T23:32:27.495Z,4.60
2023-05-23T23:34:55.168Z,4.63
2023-05-23T23:37:24.625Z,4.30
2023-05-23T23:39:52.640Z,4.73
2023-05-23T23:42:20.510Z,4.80
2023-05-23T23:44:48.324Z,4.47
2023-05-23T23:47:16.248Z,4.40
2023-05-23T23:49:44.250Z,4.60
2023-05-23T23:52:12.863Z,3.80
2023-05-23T23:54:40.474Z,3.80
2023-05-23T23:57:13.743Z,4.20
2023-05-23T23:59:41.765Z,3.97
